createdAt,value
2019-04-14T00:00:59.695Z,3.60
2019-04-14T00:03:26.088Z,3.50
2019-04-14T00:05:49.690Z,3.50
2019-04-14T00:08:11.284Z,3.50
2019-04-14T00:10:33.359Z,3.50
2019-04-14T00:12:55.653Z,3.50
2019-04-14T00:15:24.379Z,3.50
2019-04-14T00:17:41.301Z,3.50
2019-04-14T00:20:05.373Z,3.40
2019-04-14T00:22:29.306Z,3.50
2019-04-14T00:24:51.148Z,3.50
2019-04-14T00:27:14.867Z,3.50
2019-04-14T00:29:37.147Z,3.40
2019-04-14T00:31:58.832Z,3.50
2019-04-14T00:34:35.222Z,3.50
2019-04-14T00:37:05.553Z,3.50
2019-04-14T00:39:29.402Z,3.50
2019-04-14T00:41:59.023Z,3.50
2019-04-14T00:44:38.741Z,3.50
2019-04-14T00:47:05.040Z,3.60
2019-04-14T00:49:26.855Z,3.60
2019-04-14T00:51:48.597Z,3.60
2019-04-14T00:54:10.956Z,3.60
2019-04-14T00:56:32.691Z,3.60
2019-04-14T00:58:53.987Z,3.70
2019-04-14T01:01:15.502Z,3.60
2019-04-14T01:03:37.350Z,3.60
2019-04-14T01:05:59.050Z,3.60
2019-04-14T01:08:20.598Z,3.60
2019-04-14T01:10:43.207Z,3.70
2019-04-14T01:13:05.806Z,3.70
2019-04-14T01:15:28.920Z,3.70
2019-04-14T01:17:50.681Z,3.60
2019-04-14T01:20:12.671Z,3.60
2019-04-14T01:22:33.985Z,3.50
2019-04-14T01:24:55.354Z,3.50
2019-04-14T01:27:16.866Z,3.50
2019-04-14T01:29:38.475Z,3.50
2019-04-14T01:32:00.165Z,3.50
2019-04-14T01:34:21.715Z,3.50
2019-04-14T01:36:43.201Z,3.50
2019-04-14T01:39:04.730Z,3.50
2019-04-14T01:41:41.092Z,3.60
2019-04-14T01:44:04.556Z,3.50
2019-04-14T01:46:29.514Z,3.60
2019-04-14T01:48:49.741Z,3.50
2019-04-14T01:51:28.867Z,3.50
2019-04-14T01:54:08.938Z,3.50
2019-04-14T01:56:38.411Z,3.50
2019-04-14T01:59:02.192Z,3.50
2019-04-14T02:01:26.033Z,3.50
2019-04-14T02:03:47.750Z,3.60
2019-04-14T02:06:09.366Z,3.60
2019-04-14T02:08:30.843Z,3.70
2019-04-14T02:10:52.135Z,3.70
2019-04-14T02:13:13.640Z,3.60
2019-04-14T02:15:35.216Z,3.50
2019-04-14T02:17:56.776Z,3.50
2019-04-14T02:20:19.117Z,3.50
2019-04-14T02:22:40.305Z,3.50
2019-04-14T02:25:01.578Z,3.50
2019-04-14T02:27:23.151Z,3.50
2019-04-14T02:29:45.110Z,3.50
2019-04-14T02:32:34.776Z,3.60
2019-04-14T02:34:57.437Z,3.50
2019-04-14T02:37:24.414Z,3.50
2019-04-14T02:39:46.628Z,3.50
2019-04-14T02:42:28.341Z,3.50
2019-04-14T02:44:33.503Z,3.50
2019-04-14T02:49:12.478Z,3.50
2019-04-14T02:51:33.635Z,3.50
2019-04-14T02:56:35.721Z,3.40
2019-04-14T02:58:58.396Z,3.50
2019-04-14T03:01:14.665Z,3.50
2019-04-14T03:03:30.250Z,3.50
2019-04-14T03:06:01.916Z,3.50
2019-04-14T03:10:40.203Z,3.40
2019-04-14T03:13:08.243Z,3.40
2019-04-14T03:15:34.821Z,3.60
2019-04-14T03:18:20.475Z,3.50
2019-04-14T03:20:24.549Z,3.50
2019-04-14T03:22:55.718Z,3.40
2019-04-14T03:25:30.133Z,3.40
2019-04-14T03:27:58.956Z,3.40
2019-04-14T03:35:47.761Z,3.40
2019-04-14T03:37:45.090Z,3.50
2019-04-14T03:42:31.669Z,3.50
2019-04-14T03:44:54.539Z,3.40
2019-04-14T03:47:13.707Z,3.50
2019-04-14T03:52:22.192Z,3.40
2019-04-14T03:54:07.946Z,3.40
2019-04-14T03:56:42.380Z,3.30
2019-04-14T03:59:04.227Z,3.40
2019-04-14T04:01:25.871Z,3.40
2019-04-14T04:03:47.855Z,3.40
2019-04-14T04:06:09.680Z,3.40
2019-04-14T04:08:31.312Z,3.40
2019-04-14T04:10:55.434Z,3.40
2019-04-14T04:13:17.210Z,3.40
2019-04-14T04:15:38.866Z,3.40
2019-04-14T04:18:20.323Z,3.40
2019-04-14T04:20:52.483Z,3.40
2019-04-14T04:23:16.264Z,3.30
2019-04-14T04:25:46.581Z,3.30
2019-04-14T04:28:23.117Z,3.20
2019-04-14T04:30:55.943Z,3.30
2019-04-14T04:33:37.224Z,3.30
2019-04-14T04:36:01.108Z,3.30
2019-04-14T04:38:27.621Z,3.30
2019-04-14T04:40:49.115Z,3.30
2019-04-14T04:43:10.399Z,3.30
2019-04-14T04:45:32.077Z,3.30
2019-04-14T04:47:53.513Z,3.20
2019-04-14T04:50:15.284Z,3.30
2019-04-14T04:52:36.559Z,3.30
2019-04-14T04:54:58.121Z,3.20
2019-04-14T04:57:19.986Z,3.20
2019-04-14T04:59:41.244Z,3.30
2019-04-14T05:02:02.665Z,3.20
2019-04-14T05:04:24.423Z,3.20
2019-04-14T05:07:16.548Z,3.30
2019-04-14T05:09:40.589Z,3.30
2019-04-14T05:12:04.449Z,3.30
2019-04-14T05:14:43.450Z,3.30
2019-04-14T05:17:05.814Z,3.30
2019-04-14T05:19:32.892Z,3.20
2019-04-14T05:21:50.244Z,3.20
2019-04-14T05:24:11.472Z,3.20
2019-04-14T05:26:33.154Z,3.20
2019-04-14T05:28:54.862Z,3.40
2019-04-14T05:31:16.501Z,3.30
2019-04-14T05:33:38.275Z,3.40
2019-04-14T05:35:59.926Z,3.40
2019-04-14T05:38:21.255Z,3.30
2019-04-14T05:40:42.957Z,3.30
2019-04-14T05:43:04.577Z,3.40
2019-04-14T05:45:26.276Z,3.40
2019-04-14T05:47:47.952Z,3.50
2019-04-14T05:50:09.626Z,3.50
2019-04-14T05:52:31.848Z,3.60
2019-04-14T05:54:53.624Z,3.60
2019-04-14T05:57:15.517Z,3.50
2019-04-14T05:59:37.523Z,3.60
2019-04-14T06:01:59.436Z,3.50
2019-04-14T06:04:20.688Z,3.60
2019-04-14T06:06:42.990Z,3.50
2019-04-14T06:09:05.977Z,3.60
2019-04-14T06:11:27.186Z,3.60
2019-04-14T06:13:48.463Z,3.50
2019-04-14T06:16:09.748Z,3.50
2019-04-14T06:18:31.212Z,3.50
2019-04-14T06:21:12.266Z,3.50
2019-04-14T06:23:33.449Z,3.60
2019-04-14T06:25:54.629Z,3.70
2019-04-14T06:28:16.094Z,3.70
2019-04-14T06:30:39.252Z,3.80
2019-04-14T06:33:02.509Z,3.80
2019-04-14T06:35:25.589Z,3.80
2019-04-14T06:37:54.385Z,3.90
2019-04-14T06:40:15.645Z,3.70
2019-04-14T06:42:36.864Z,3.70
2019-04-14T06:44:58.049Z,3.80
2019-04-14T06:47:19.238Z,3.80
2019-04-14T06:49:48.953Z,4.00
2019-04-14T06:52:03.853Z,4.10
2019-04-14T06:54:26.167Z,4.20
2019-04-14T06:56:47.474Z,4.20
2019-04-14T06:59:08.659Z,4.40
2019-04-14T07:01:29.858Z,4.40
2019-04-14T07:03:51.176Z,4.80
2019-04-14T07:06:12.378Z,4.90
2019-04-14T07:08:33.569Z,5.30
2019-04-14T07:10:54.746Z,5.40
2019-04-14T07:13:15.946Z,5.60
2019-04-14T07:15:38.367Z,5.80
2019-04-14T07:17:59.565Z,5.90
2019-04-14T07:20:20.893Z,6.20
2019-04-14T07:22:42.092Z,6.00
2019-04-14T07:25:04.224Z,5.80
2019-04-14T07:27:25.415Z,5.60
2019-04-14T07:32:44.469Z,5.40
2019-04-14T07:35:07.537Z,5.60
2019-04-14T07:37:45.631Z,5.70
2019-04-14T07:40:25.772Z,5.60
2019-04-14T07:42:51.638Z,5.80
2019-04-14T07:45:14.756Z,5.70
2019-04-14T07:50:33.536Z,5.50
2019-04-14T07:53:13.461Z,5.60
2019-04-14T07:55:36.548Z,5.50
2019-04-14T08:01:12.240Z,5.60
2019-04-14T08:03:35.629Z,5.80
2019-04-14T08:05:56.927Z,5.90
2019-04-14T08:08:18.136Z,6.00
2019-04-14T08:10:39.315Z,6.10
2019-04-14T08:13:00.601Z,5.70
2019-04-14T08:15:21.894Z,5.90
2019-04-14T08:17:43.722Z,5.90
2019-04-14T08:20:05.567Z,5.70
2019-04-14T08:22:27.208Z,6.00
2019-04-14T08:24:48.406Z,5.90
2019-04-14T08:27:10.056Z,5.60
2019-04-14T08:29:31.541Z,5.40
2019-04-14T08:31:52.851Z,5.70
2019-04-14T08:34:14.264Z,6.00
2019-04-14T08:36:35.796Z,6.20
2019-04-14T08:38:57.070Z,6.20
2019-04-14T08:41:19.730Z,6.30
2019-04-14T08:43:43.038Z,6.00
2019-04-14T08:46:18.495Z,6.10
2019-04-14T08:48:56.761Z,5.70
2019-04-14T08:51:19.831Z,5.70
2019-04-14T08:53:43.294Z,5.90
2019-04-14T08:56:21.212Z,5.90
2019-04-14T08:58:50.169Z,6.30
2019-04-14T09:04:07.571Z,6.90
2019-04-14T09:06:33.577Z,7.30
2019-04-14T09:08:56.698Z,7.50
2019-04-14T09:11:35.079Z,7.60
2019-04-14T09:13:56.299Z,7.60
2019-04-14T09:16:17.478Z,7.50
2019-04-14T09:18:39.015Z,7.50
2019-04-14T09:21:00.360Z,7.70
2019-04-14T09:23:21.549Z,7.40
2019-04-14T09:25:42.728Z,8.00
2019-04-14T09:28:03.909Z,7.30
2019-04-14T09:30:25.110Z,7.30
2019-04-14T09:32:46.326Z,7.60
2019-04-14T09:35:07.974Z,7.50
2019-04-14T09:37:29.245Z,7.90
2019-04-14T09:39:50.574Z,8.30
2019-04-14T09:42:11.879Z,8.20
2019-04-14T09:44:33.198Z,8.40
2019-04-14T09:46:54.376Z,8.50
2019-04-14T09:49:15.817Z,8.40
2019-04-14T09:51:36.999Z,8.30
2019-04-14T09:53:58.436Z,8.40
2019-04-14T09:56:20.068Z,8.10
2019-04-14T09:58:41.688Z,8.10
2019-04-14T10:01:03.093Z,8.50
2019-04-14T10:03:24.711Z,8.60
2019-04-14T10:05:46.252Z,8.90
2019-04-14T10:08:07.633Z,9.10
2019-04-14T10:10:29.158Z,9.40
2019-04-14T10:12:50.473Z,9.30
2019-04-14T10:15:11.905Z,9.00
2019-04-14T10:17:33.088Z,9.00
2019-04-14T10:19:54.296Z,9.50
2019-04-14T10:22:15.501Z,9.60
2019-04-14T10:24:36.745Z,9.40
2019-04-14T10:26:57.929Z,9.30
2019-04-14T10:29:20.211Z,9.50
2019-04-14T10:31:41.421Z,10.00
2019-04-14T10:34:02.832Z,10.60
2019-04-14T10:36:24.033Z,10.80
2019-04-14T10:38:45.343Z,11.60
2019-04-14T10:41:06.624Z,12.10
2019-04-14T10:43:27.840Z,12.20
2019-04-14T10:45:50.361Z,11.30
2019-04-14T10:48:11.662Z,11.30
2019-04-14T10:50:33.282Z,10.80
2019-04-14T10:52:54.466Z,10.70
2019-04-14T10:55:15.660Z,10.80
2019-04-14T10:57:37.344Z,11.30
2019-04-14T10:59:58.607Z,11.50
2019-04-14T11:02:19.804Z,12.00
2019-04-14T11:04:41.226Z,12.50
2019-04-14T11:07:10.754Z,12.50
2019-04-14T11:09:32.164Z,12.70
2019-04-14T11:11:53.379Z,13.20
2019-04-14T11:14:14.568Z,13.70
2019-04-14T11:16:35.770Z,13.90
2019-04-14T11:18:56.948Z,13.70
2019-04-14T11:21:18.150Z,13.40
2019-04-14T11:23:40.541Z,13.90
2019-04-14T11:26:01.723Z,13.20
2019-04-14T11:28:22.904Z,13.70
2019-04-14T11:30:44.189Z,13.50
2019-04-14T11:33:09.883Z,13.50
2019-04-14T11:35:35.769Z,12.00
2019-04-14T11:38:01.409Z,12.00
2019-04-14T11:40:24.498Z,12.20
2019-04-14T11:42:52.324Z,12.40
2019-04-14T11:45:09.030Z,12.20
2019-04-14T11:47:30.213Z,11.70
2019-04-14T11:49:51.658Z,11.90
2019-04-14T11:52:12.871Z,12.30
2019-04-14T11:54:34.076Z,11.90
2019-04-14T11:56:55.272Z,12.60
2019-04-14T11:59:18.355Z,12.50
2019-04-14T12:01:47.253Z,13.00
2019-04-14T12:07:24.246Z,12.90
2019-04-14T12:09:48.317Z,13.50
2019-04-14T12:12:09.824Z,13.30
2019-04-14T12:14:31.034Z,13.50
2019-04-14T12:16:52.230Z,13.90
2019-04-14T12:19:13.413Z,14.20
2019-04-14T12:21:34.657Z,14.40
2019-04-14T12:23:55.837Z,14.50
2019-04-14T12:26:30.937Z,13.70
2019-04-14T12:28:52.118Z,13.30
2019-04-14T12:31:13.328Z,12.40
2019-04-14T12:33:34.508Z,12.80
2019-04-14T12:35:55.693Z,13.20
2019-04-14T12:38:16.889Z,12.40
2019-04-14T12:40:38.823Z,12.20
2019-04-14T12:43:04.974Z,12.90
2019-04-14T12:45:47.033Z,13.20
2019-04-14T12:48:10.181Z,13.30
2019-04-14T12:50:33.260Z,13.60
2019-04-14T12:52:54.684Z,13.50
2019-04-14T12:55:15.872Z,14.10
2019-04-14T12:57:39.086Z,14.20
2019-04-14T13:00:00.273Z,14.30
2019-04-14T13:02:29.140Z,14.50
2019-04-14T13:04:50.335Z,14.10
2019-04-14T13:07:11.805Z,13.20
2019-04-14T13:09:32.977Z,12.90
2019-04-14T13:11:54.176Z,12.50
2019-04-14T13:14:15.354Z,12.90
2019-04-14T13:16:36.588Z,12.50
2019-04-14T13:18:57.789Z,12.70
2019-04-14T13:21:19.257Z,12.70
2019-04-14T13:23:40.442Z,12.70
2019-04-14T13:26:01.627Z,13.20
2019-04-14T13:28:22.833Z,12.90
2019-04-14T13:30:45.455Z,13.10
2019-04-14T13:33:06.694Z,12.70
2019-04-14T13:35:27.967Z,13.10
2019-04-14T13:37:49.330Z,13.10
2019-04-14T13:40:12.510Z,13.60
2019-04-14T13:42:33.801Z,13.20
2019-04-14T13:44:55.097Z,12.90
2019-04-14T13:47:16.307Z,13.00
2019-04-14T13:49:37.510Z,13.00
2019-04-14T13:51:58.750Z,13.40
2019-04-14T13:54:20.017Z,13.70
2019-04-14T13:56:41.212Z,13.80
2019-04-14T13:59:02.396Z,13.80
2019-04-14T14:01:23.883Z,14.10
2019-04-14T14:03:45.099Z,14.00
2019-04-14T14:06:06.460Z,14.00
2019-04-14T14:08:27.658Z,14.40
2019-04-14T14:10:50.150Z,14.40
2019-04-14T14:13:13.397Z,14.00
2019-04-14T14:15:53.480Z,13.50
2019-04-14T14:18:16.671Z,13.20
2019-04-14T14:20:39.753Z,12.60
2019-04-14T14:23:05.408Z,12.70
2019-04-14T14:25:31.242Z,12.40
2019-04-14T14:28:06.350Z,12.50
2019-04-14T14:30:27.857Z,12.50
2019-04-14T14:32:49.050Z,12.70
2019-04-14T14:35:10.261Z,12.70
2019-04-14T14:37:31.448Z,12.20
2019-04-14T14:39:52.654Z,12.20
2019-04-14T14:42:13.825Z,12.20
2019-04-14T14:44:39.450Z,12.00
2019-04-14T14:47:18.040Z,11.60
2019-04-14T14:49:41.578Z,11.70
2019-04-14T14:52:05.033Z,11.80
2019-04-14T14:54:26.351Z,11.80
2019-04-14T14:56:47.528Z,11.60
2019-04-14T14:59:08.932Z,11.70
2019-04-14T15:01:30.100Z,11.70
2019-04-14T15:03:51.292Z,11.80
2019-04-14T15:06:12.538Z,11.90
2019-04-14T15:08:33.893Z,11.90
2019-04-14T15:10:55.105Z,12.00
2019-04-14T15:13:16.351Z,12.10
2019-04-14T15:15:37.617Z,12.40
2019-04-14T15:17:58.817Z,12.40
2019-04-14T15:20:20.006Z,12.30
2019-04-14T15:22:42.075Z,12.70
2019-04-14T15:25:04.127Z,12.60
2019-04-14T15:27:25.408Z,12.80
2019-04-14T15:29:46.617Z,12.60
2019-04-14T15:32:07.818Z,12.70
2019-04-14T15:34:29.034Z,12.70
2019-04-14T15:36:50.230Z,12.80
2019-04-14T15:39:11.442Z,12.70
2019-04-14T15:41:32.612Z,12.50
2019-04-14T15:43:53.839Z,12.30
2019-04-14T15:46:15.011Z,12.30
2019-04-14T15:48:36.218Z,12.40
2019-04-14T15:50:57.391Z,12.50
2019-04-14T15:53:18.581Z,12.50
2019-04-14T15:55:39.760Z,12.50
2019-04-14T15:58:02.882Z,12.40
2019-04-14T16:00:41.117Z,12.50
2019-04-14T16:03:22.209Z,12.30
2019-04-14T16:05:45.398Z,12.40
2019-04-14T16:08:14.366Z,12.30
2019-04-14T16:10:56.103Z,12.30
2019-04-14T16:13:19.199Z,12.60
2019-04-14T16:16:00.687Z,12.70
2019-04-14T16:18:40.417Z,12.70
2019-04-14T16:21:01.606Z,12.90
2019-04-14T16:23:22.910Z,12.90
2019-04-14T16:25:51.902Z,13.00
2019-04-14T16:28:17.751Z,13.00
2019-04-14T16:30:40.848Z,13.00
2019-04-14T16:33:13.282Z,13.00
2019-04-14T16:35:36.478Z,13.00
2019-04-14T16:37:57.787Z,12.70
2019-04-14T16:40:19.084Z,12.50
2019-04-14T16:42:40.365Z,12.50
2019-04-14T16:45:04.796Z,12.30
2019-04-14T16:47:28.188Z,12.20
2019-04-14T16:49:49.837Z,12.30
2019-04-14T16:52:13.025Z,12.20
2019-04-14T16:54:36.137Z,12.10
2019-04-14T16:57:16.090Z,11.90
2019-04-14T16:59:37.377Z,11.80
2019-04-14T17:02:10.433Z,11.80
2019-04-14T17:04:21.668Z,11.80
2019-04-14T17:06:42.868Z,11.80
2019-04-14T17:09:05.634Z,11.80
2019-04-14T17:11:28.748Z,11.70
2019-04-14T17:13:54.364Z,11.70
2019-04-14T17:16:26.345Z,11.70
2019-04-14T17:18:52.083Z,11.70
2019-04-14T17:21:15.223Z,11.60
2019-04-14T17:23:55.047Z,11.60
2019-04-14T17:26:23.952Z,11.50
2019-04-14T17:28:49.913Z,11.50
2019-04-14T17:31:16.308Z,11.40
2019-04-14T17:33:39.396Z,11.30
2019-04-14T17:36:04.993Z,11.20
2019-04-14T17:38:31.389Z,11.10
2019-04-14T17:41:11.606Z,10.90
2019-04-14T17:43:35.059Z,10.90
2019-04-14T17:46:01.045Z,10.80
2019-04-14T17:48:40.953Z,10.70
2019-04-14T17:51:10.051Z,10.60
2019-04-14T17:53:39.250Z,10.60
2019-04-14T17:56:08.317Z,10.50
2019-04-14T17:58:34.103Z,10.40
2019-04-14T18:00:59.970Z,10.40
2019-04-14T18:03:38.928Z,10.30
2019-04-14T18:08:55.684Z,10.10
2019-04-14T18:11:30.735Z,10.10
2019-04-14T18:14:25.379Z,10.10
2019-04-14T18:16:48.483Z,10.00
2019-04-14T18:19:11.681Z,10.10
2019-04-14T18:21:32.877Z,10.00
2019-04-14T18:23:54.130Z,9.90
2019-04-14T18:26:17.499Z,9.90
2019-04-14T18:28:40.590Z,9.80
2019-04-14T18:31:03.677Z,9.70
2019-04-14T18:33:35.964Z,9.60
2019-04-14T18:36:04.933Z,9.60
2019-04-14T18:38:31.321Z,9.60
2019-04-14T18:41:11.022Z,9.50
2019-04-14T18:43:35.202Z,9.40
2019-04-14T18:46:06.881Z,9.40
2019-04-14T18:48:29.993Z,9.40
2019-04-14T18:51:10.275Z,9.30
2019-04-14T18:53:48.500Z,9.30
2019-04-14T18:56:11.620Z,9.20
2019-04-14T18:58:35.924Z,9.20
2019-04-14T19:01:01.509Z,9.20
2019-04-14T19:03:22.731Z,9.20
2019-04-14T19:05:44.014Z,9.20
2019-04-14T19:08:05.216Z,9.20
2019-04-14T19:10:26.409Z,9.20
2019-04-14T19:12:52.001Z,9.10
2019-04-14T19:15:33.184Z,9.00
2019-04-14T19:17:56.277Z,9.00
2019-04-14T19:20:19.374Z,9.00
2019-04-14T19:22:40.556Z,9.00
2019-04-14T19:25:08.232Z,8.90
2019-04-14T19:27:25.457Z,8.80
2019-04-14T19:29:46.641Z,8.80
2019-04-14T19:32:07.838Z,8.80
2019-04-14T19:34:29.102Z,8.70
2019-04-14T19:36:50.329Z,8.60
2019-04-14T19:39:11.524Z,8.60
2019-04-14T19:41:33.192Z,8.60
2019-04-14T19:43:54.394Z,8.60
2019-04-14T19:46:15.584Z,8.60
2019-04-14T19:48:36.809Z,8.50
2019-04-14T19:50:58.059Z,8.50
2019-04-14T19:53:19.474Z,8.40
2019-04-14T19:55:40.678Z,8.30
2019-04-14T19:58:01.868Z,8.20
2019-04-14T20:00:23.181Z,8.20
2019-04-14T20:02:44.469Z,8.20
2019-04-14T20:05:06.250Z,8.20
2019-04-14T20:07:27.458Z,8.10
2019-04-14T20:09:48.664Z,8.10
2019-04-14T20:12:09.836Z,8.10
2019-04-14T20:14:31.137Z,8.00
2019-04-14T20:16:54.218Z,8.00
2019-04-14T20:19:17.336Z,8.00
2019-04-14T20:21:40.710Z,7.90
2019-04-14T20:24:20.420Z,8.00
2019-04-14T20:27:00.169Z,7.90
2019-04-14T20:29:23.275Z,7.90
2019-04-14T20:31:46.343Z,7.80
2019-04-14T20:34:07.569Z,7.80
2019-04-14T20:36:28.850Z,7.70
2019-04-14T20:38:50.147Z,7.70
2019-04-14T20:41:11.370Z,7.70
2019-04-14T20:43:32.574Z,7.70
2019-04-14T20:45:53.982Z,7.70
2019-04-14T20:48:15.165Z,7.60
2019-04-14T20:50:38.280Z,7.60
2019-04-14T20:52:59.562Z,7.60
2019-04-14T20:55:20.856Z,7.40
2019-04-14T20:57:42.300Z,7.40
2019-04-14T21:00:04.996Z,7.30
2019-04-14T21:02:30.088Z,7.20
2019-04-14T21:04:55.888Z,7.10
2019-04-14T21:07:22.322Z,7.10
2019-04-14T21:09:45.534Z,7.10
2019-04-14T21:12:08.790Z,7.10
2019-04-14T21:14:50.156Z,7.10
2019-04-14T21:17:22.233Z,6.90
2019-04-14T21:19:45.365Z,6.90
2019-04-14T21:22:25.165Z,6.80
2019-04-14T21:25:04.909Z,6.80
2019-04-14T21:27:31.225Z,6.70
2019-04-14T21:30:11.008Z,6.60
2019-04-14T21:32:34.099Z,6.60
2019-04-14T21:34:58.500Z,6.50
2019-04-14T21:37:30.416Z,6.60
2019-04-14T21:40:10.154Z,6.60
2019-04-14T21:42:31.536Z,6.50
2019-04-14T21:44:52.741Z,6.40
2019-04-14T21:47:13.923Z,6.40
2019-04-14T21:49:35.168Z,6.40
2019-04-14T21:52:14.888Z,6.30
2019-04-14T21:54:36.099Z,6.30
2019-04-14T21:57:05.163Z,6.20
2019-04-14T21:59:28.444Z,6.20
2019-04-14T22:02:08.346Z,6.20
2019-04-14T22:04:31.432Z,6.10
2019-04-14T22:06:57.056Z,6.00
2019-04-14T22:09:26.230Z,5.90
2019-04-14T22:11:47.437Z,5.90
2019-04-14T22:14:08.624Z,5.80
2019-04-14T22:16:29.853Z,5.70
2019-04-14T22:18:51.038Z,5.70
2019-04-14T22:21:12.265Z,5.70
2019-04-14T22:23:33.518Z,5.50
2019-04-14T22:25:56.018Z,5.50
2019-04-14T22:28:17.204Z,5.40
2019-04-14T22:30:38.439Z,5.40
2019-04-14T22:32:59.931Z,5.40
2019-04-14T22:35:21.124Z,5.30
2019-04-14T22:37:42.303Z,5.30
2019-04-14T22:40:04.904Z,5.30
2019-04-14T22:42:26.112Z,5.20
2019-04-14T22:44:47.333Z,5.10
2019-04-14T22:47:08.530Z,5.10
2019-04-14T22:49:29.710Z,5.10
2019-04-14T22:51:50.916Z,5.00
2019-04-14T22:54:12.193Z,5.00
2019-04-14T22:56:39.603Z,5.00
2019-04-14T22:58:56.611Z,5.00
2019-04-14T23:01:32.907Z,5.00
2019-04-14T23:04:10.741Z,4.90
2019-04-14T23:06:50.522Z,4.90
2019-04-14T23:09:29.028Z,4.80
2019-04-14T23:12:08.777Z,4.80
2019-04-14T23:14:31.885Z,4.80
2019-04-14T23:17:11.237Z,4.70
2019-04-14T23:19:49.667Z,4.70
2019-04-14T23:22:19.018Z,4.70
2019-04-14T23:24:47.988Z,4.60
2019-04-14T23:27:09.249Z,4.50
2019-04-14T23:29:30.436Z,4.50
2019-04-14T23:31:51.624Z,4.40
2019-04-14T23:34:12.817Z,4.30
2019-04-14T23:36:34.019Z,4.30
2019-04-14T23:38:55.204Z,4.10
2019-04-14T23:41:16.521Z,4.00
2019-04-14T23:43:37.722Z,3.90
2019-04-14T23:45:59.115Z,3.90
2019-04-14T23:48:20.378Z,3.90
2019-04-14T23:50:41.812Z,4.00
2019-04-14T23:53:03.032Z,3.80
2019-04-14T23:55:24.258Z,3.80
2019-04-14T23:57:45.478Z,3.80
